Latest Weather Observations for Williamson

IDQ60801

Issued at 1:32 pm EST Tuesday 30 June 2015 (issued every 30 minutes, with the page automatically refreshed every 10 minutes)

About weather observations | Map of weather stations | Latest weather observations for QLD | Other Formats
Station Details ID: 033195 Name: WILLIAMSON Lat: -22.47 Lon: 150.18 Height: 27.6 m
Data from the previous 72 hours. | See also: Recent months at Williamson
Date/Time
EST
Temp
°C
App
Temp
°C
Dew
Point
Rel
Hum
%
Delta-T
°C
Wind Press
QNH
hPa
Press
MSL
hPa
Rain
since 9 am
mm
Dir
 
Spd
km/h
Gust
km/h
Spd
kts
Gust
kts
30/01:30pm 24.7 23.4 14.8 54 5.9 ESE 15 24 8 13 1021.8 1021.7 0.0
30/01:00pm 24.1 22.2 15.1 57 5.4 E 19 28 10 15 1022.1 1022.0 0.0
30/12:30pm 24.1 22.7 14.5 55 5.7 SE 15 24 8 13 1022.8 1022.7 0.0
30/12:00pm 24.1 22.3 14.5 55 5.7 ESE 17 30 9 16 1023.2 1023.2 0.0
30/11:30am 23.9 21.9 14.0 54 5.8 E 17 26 9 14 1023.5 1023.5 0.0
30/11:00am 23.6 22.2 14.6 57 5.3 ESE 15 22 8 12 1024.0 1024.0 0.0
30/10:30am 23.7 22.7 15.7 61 4.8 E 15 24 8 13 1024.1 1024.1 0.0
30/10:00am 22.3 21.5 15.2 64 4.2 S 13 20 7 11 1024.3 1024.3 0.0
30/09:30am 21.3 20.8 16.0 72 3.2 S 13 20 7 11 1024.4 1024.4 0.0
30/09:00am 20.5 19.3 16.1 76 2.6 S 17 22 9 12 1024.5 1024.5 0.4
30/08:30am 19.8 19.4 16.3 80 2.1 SSE 13 24 7 13 1024.5 1024.5 0.4
30/08:00am 18.9 18.0 15.9 83 1.8 SSE 15 26 8 14 1024.2 1024.2 0.4
30/07:30am 18.3 17.5 16.1 87 1.3 S 15 22 8 12 1023.9 1023.9 0.4
30/07:00am 17.5 17.6 16.5 94 0.6 SSE 11 15 6 8 1023.6 1023.6 0.4
30/06:30am 16.6 16.7 15.6 94 0.6 S 9 11 5 6 1023.4 1023.4 0.4
30/06:00am 17.6 17.6 16.3 92 0.8 S 11 15 6 8 1023.3 1023.3 0.4
30/05:30am 18.1 17.8 16.4 90 1.0 SSW 13 17 7 9 1022.8 1022.7 0.4
30/05:00am 18.3 19.2 16.6 90 1.0 S 7 11 4 6 1022.5 1022.4 0.4
30/04:30am 18.2 18.7 16.5 90 1.0 SSW 9 13 5 7 1022.4 1022.3 0.4
30/04:00am 18.1 18.2 15.5 85 1.5 S 9 15 5 8 1022.3 1022.2 0.4
30/03:30am 20.1 19.7 15.1 73 2.9 ESE 11 20 6 11 1022.3 1022.2 0.4
30/03:00am 20.2 19.1 15.2 73 2.9 ESE 15 26 8 14 1022.5 1022.4 0.4
30/02:30am 17.8 18.6 16.3 91 0.9 SSE 7 11 4 6 1022.8 1022.7 0.4
30/02:00am 17.9 18.6 16.1 89 1.1 S 7 11 4 6 1023.0 1023.0 0.4
30/01:30am 20.1 20.4 16.1 78 2.4 SE 9 19 5 10 1023.6 1023.6 0.4
30/01:00am 18.7 19.3 16.7 88 1.2 SE 9 15 5 8 1023.9 1023.9 0.4
30/12:30am 17.6 19.7 16.3 92 0.8 CALM 0 6 0 3 1024.1 1024.1 0.4
30/12:00am 18.1 19.1 16.8 92 0.8 S 7 13 4 7 1024.3 1024.3 0.4
 
Date/Time
EST
Temp
°C
App
Temp
°C
Dew
Point
Rel
Hum
%
Delta-T
°C
Wind Press
QNH
hPa
Press
MSL
hPa
Rain
since 9 am
mm
Dir
 
Spd
km/h
Gust
km/h
Spd
kts
Gust
kts
29/11:30pm 18.5 19.4 16.5 88 1.2 SE 7 13 4 7 1024.4 1024.4 0.2
29/11:00pm 19.8 18.9 15.9 78 2.3 ESE 15 24 8 13 1024.6 1024.6 0.2
29/10:30pm 19.9 18.9 15.7 77 2.5 ESE 15 22 8 12 1024.9 1024.9 0.2
29/10:00pm 20.0 19.5 16.0 78 2.4 ESE 13 26 7 14 1024.9 1024.9 0.2
29/09:30pm 20.1 20.3 15.7 76 2.6 SE 9 17 5 9 1024.9 1024.9 0.2
29/09:00pm 21.0 21.0 15.1 69 3.5 ESE 9 15 5 8 1024.8 1024.8 0.2
29/08:30pm 20.9 20.4 15.0 69 3.5 ESE 11 17 6 9 1024.8 1024.8 0.2
29/08:00pm 21.1 21.1 15.2 69 3.5 ESE 9 17 5 9 1024.5 1024.5 0.2
29/07:30pm 20.9 19.9 15.7 72 3.1 ESE 15 26 8 14 1024.3 1024.3 0.2
29/07:00pm 21.0 20.3 15.5 71 3.3 ESE 13 22 7 12 1024.2 1024.2 0.2
29/06:30pm 21.0 20.5 15.8 72 3.1 ESE 13 22 7 12 1023.9 1023.9 0.2
29/06:00pm 21.2 20.4 16.0 72 3.1 ESE 15 30 8 16 1023.6 1023.6 0.2
29/05:30pm 21.6 20.3 15.7 69 3.5 ESE 17 30 9 16 1023.4 1023.4 0.2
29/05:00pm 21.7 21.2 16.0 70 3.4 ESE 13 28 7 15 1023.2 1023.2 0.2
29/04:30pm 22.1 21.4 16.4 70 3.5 ESE 15 26 8 14 1023.1 1023.1 0.2
29/04:00pm 22.4 20.9 16.4 69 3.6 ESE 19 30 10 16 1022.8 1022.7 0.2
29/03:30pm 22.4 21.1 16.7 70 3.5 ESE 19 35 10 19 1022.7 1022.6 0.2
29/03:00pm 22.5 20.8 15.8 66 4.0 E 19 32 10 17 1022.6 1022.5 0.2
29/02:30pm 22.9 21.3 16.0 65 4.2 E 19 32 10 17 1022.8 1022.7 0.2
29/02:00pm 22.1 21.3 17.2 74 3.0 E 17 24 9 13 1023.2 1023.2 0.2
29/01:30pm 20.3 16.6 16.9 81 2.1 E 32 50 17 27 1023.6 1023.6 0.2
29/01:27pm 20.6 17.1 16.6 78 2.4 E 30 50 16 27 1023.6 1023.6 0.2
29/01:22pm 22.4 20.2 16.0 67 3.9 E 22 50 12 27 1023.3 1023.3 0.2
29/01:00pm 22.2 23.0 18.2 78 2.5 ENE 11 17 6 9 1023.6 1023.6 0.2
29/12:30pm 22.5 21.0 16.3 68 3.8 ESE 19 30 10 16 1024.1 1024.1 0.0
29/12:00pm 21.9 19.8 16.2 70 3.4 E 22 39 12 21 1024.9 1024.9 0.0
29/11:30am 23.9 22.4 16.4 63 4.6 ESE 19 30 10 16 1025.0 1025.0 0.0
29/11:00am 21.8 21.6 16.7 73 3.1 E 13 20 7 11 1025.6 1025.6 0.0
29/10:30am 22.7 21.4 15.8 65 4.2 ESE 17 30 9 16 1025.8 1025.8 0.0
29/10:00am 22.7 21.9 16.0 66 4.0 ESE 15 24 8 13 1026.0 1026.0 0.0
29/09:30am 21.9 20.9 15.5 67 3.8 ESE 15 24 8 13 1026.1 1026.1 0.0
29/09:00am 21.3 21.2 16.0 72 3.2 SE 11 20 6 11 1026.1 1026.1 0.0
29/08:30am 19.9 19.8 16.0 78 2.3 SSE 11 20 6 11 1026.3 1026.3 0.0
29/08:00am 19.4 19.3 16.1 81 2.0 SSE 11 26 6 14 1025.9 1025.9 0.0
29/07:30am 18.2 18.6 16.2 88 1.2 SSW 9 15 5 8 1025.6 1025.6 0.0
29/07:00am 17.8 17.5 15.4 86 1.4 S 11 15 6 8 1024.9 1024.9 0.0
29/06:30am 18.9 19.5 16.7 87 1.3 SSE 9 19 5 10 1024.5 1024.5 0.0
29/06:00am 17.6 17.7 15.6 88 1.2 SSE 9 15 5 8 1024.2 1024.2 0.0
29/05:30am 18.1 18.0 15.9 87 1.3 SSE 11 17 6 9 1024.1 1024.1 0.0
29/05:00am 18.0 18.5 15.6 86 1.4 SSE 7 11 4 6 1023.9 1023.9 0.0
29/04:30am 18.3 18.4 15.4 83 1.7 SSE 9 13 5 7 1023.8 1023.8 0.0
29/04:00am 19.0 18.9 14.9 77 2.4 SSE 9 15 5 8 1023.7 1023.7 0.0
29/03:30am 20.6 19.6 14.7 69 3.5 ESE 13 22 7 12 1023.9 1023.9 0.0
29/03:00am 20.7 19.6 14.4 67 3.7 ESE 13 22 7 12 1023.9 1023.9 0.0
29/02:30am 20.7 18.9 14.4 67 3.7 ESE 17 30 9 16 1024.0 1024.0 0.0
29/02:00am 20.6 20.0 15.6 73 3.0 ESE 13 24 7 13 1024.3 1024.3 0.0
29/01:30am 20.5 19.6 15.9 75 2.8 ESE 15 24 8 13 1024.3 1024.3 0.0
29/01:00am 20.4 20.1 16.4 78 2.4 SE 13 30 7 16 1024.7 1024.7 0.0
29/12:30am 17.7 17.9 15.7 88 1.2 S 9 13 5 7 1024.8 1024.8 0.0
29/12:00am 17.9 17.1 15.2 84 1.6 S 13 17 7 9 1025.0 1025.0 0.0
 
Date/Time
EST
Temp
°C
App
Temp
°C
Dew
Point
Rel
Hum
%
Delta-T
°C
Wind Press
QNH
hPa
Press
MSL
hPa
Rain
since 9 am
mm
Dir
 
Spd
km/h
Gust
km/h
Spd
kts
Gust
kts
28/11:30pm 19.6 19.2 15.3 76 2.5 SSE 11 17 6 9 1025.3 1025.3 0.0
28/11:00pm 19.8 19.7 15.0 74 2.8 SSE 9 13 5 7 1025.5 1025.5 0.0
28/10:30pm 20.4 19.4 14.5 69 3.4 SE 13 26 7 14 1025.7 1025.7 0.0
28/10:00pm 20.2 19.6 14.6 70 3.3 SE 11 19 6 10 1025.6 1025.6 0.0
28/09:30pm 20.8 18.9 14.2 66 3.8 ESE 17 30 9 16 1025.6 1025.6 0.0
28/09:00pm 20.6 20.0 14.7 69 3.4 SE 11 20 6 11 1025.4 1025.4 0.0
28/08:30pm 21.2 18.1 14.6 66 3.9 ESE 24 39 13 21 1025.2 1025.2 0.0
28/08:00pm 20.6 19.8 15.2 71 3.2 ESE 13 26 7 14 1025.3 1025.3 0.0
28/07:30pm 20.3 19.1 16.1 77 2.5 SSE 17 26 9 14 1025.5 1025.5 0.0
28/07:00pm 20.3 19.6 16.3 78 2.4 SSE 15 28 8 15 1025.4 1025.4 0.0
28/06:30pm 20.3 19.4 15.9 76 2.6 SSE 15 24 8 13 1025.2 1025.2 0.0
28/06:00pm 20.8 20.0 16.0 74 2.9 SSE 15 26 8 14 1025.0 1025.0 0.0
28/05:30pm 21.4 20.4 15.7 70 3.4 SE 15 24 8 13 1024.5 1024.5 0.0
28/05:00pm 21.8 20.8 15.6 68 3.7 SE 15 24 8 13 1024.2 1024.2 0.0
28/04:30pm 22.5 21.0 15.4 64 4.2 ESE 17 30 9 16 1024.0 1024.0 0.0
28/04:00pm 23.2 21.0 15.0 60 4.9 ESE 20 32 11 17 1023.8 1023.8 0.0
28/03:30pm 23.6 21.8 15.4 60 4.9 ESE 19 26 10 14 1023.6 1023.6 0.0
28/03:00pm 24.0 22.2 15.5 59 5.1 E 19 32 10 17 1023.8 1023.8 0.0
28/02:30pm 24.2 22.2 15.4 58 5.3 ESE 20 35 11 19 1023.7 1023.7 0.0
28/02:00pm 23.7 21.8 15.7 61 4.8 ESE 20 33 11 18 1023.7 1023.7 0.0
28/01:30pm 24.3 22.4 15.8 59 5.2 ESE 20 43 11 23 1023.7 1023.7 0.0
28/01:00pm 23.8 22.0 16.1 62 4.7 ESE 20 33 11 18 1024.0 1024.0 0.0
28/12:30pm 23.2 20.9 15.8 63 4.5 ESE 22 32 12 17 1024.4 1024.4 0.0
28/12:00pm 23.1 21.2 15.7 63 4.4 SE 20 39 11 21 1024.7 1024.7 0.0
28/11:30am 23.3 20.9 15.4 61 4.7 ESE 22 35 12 19 1024.9 1024.9 0.0
28/11:00am 24.2 23.3 15.9 59 5.0 ESE 15 24 8 13 1024.9 1024.9 0.0
28/10:30am 22.6 22.1 15.9 66 4.0 SE 13 22 7 12 1025.4 1025.4 0.0
28/10:00am 22.6 22.4 16.6 69 3.6 SE 13 20 7 11 1025.3 1025.3 0.0
28/09:30am 20.6 20.3 16.4 77 2.5 S 13 19 7 10 1025.4 1025.4 0.0
28/09:00am 19.3 18.9 16.2 82 1.8 S 13 17 7 9 1025.5 1025.5 0.2
28/08:30am 18.2 17.9 15.5 84 1.6 S 11 17 6 9 1025.5 1025.5 0.2
28/08:00am 17.3 16.9 15.3 88 1.2 SSE 11 19 6 10 1025.3 1025.3 0.2
28/07:30am 16.5 16.4 15.0 91 0.9 S 9 15 5 8 1024.9 1024.9 0.2
28/07:00am 16.1 16.0 15.0 93 0.6 SSE 9 15 5 8 1024.9 1024.9 0.2
28/06:30am 16.0 15.9 15.0 94 0.6 SSE 9 17 5 9 1024.7 1024.7 0.2
28/06:00am 15.9 15.1 15.1 95 0.5 S 13 19 7 10 1024.7 1024.7 0.2
28/05:30am 15.9 15.1 15.1 95 0.5 S 13 19 7 10 1024.5 1024.5 0.2
28/05:00am 16.1 14.9 15.1 94 0.6 S 15 22 8 12 1024.3 1024.3 0.2
28/04:30am 16.2 15.8 15.1 93 0.6 S 11 17 6 9 1024.2 1024.2 0.2
28/04:00am 16.4 16.0 15.1 92 0.7 S 11 19 6 10 1024.3 1024.3 0.2
28/03:30am 16.7 16.3 15.2 91 0.9 S 11 17 6 9 1024.2 1024.2 0.2
28/03:00am 16.8 16.3 15.0 89 1.0 S 11 19 6 10 1024.4 1024.4 0.2
28/02:30am 16.9 16.1 15.1 89 1.0 S 13 17 7 9 1024.5 1024.5 0.2
28/02:00am 17.1 16.7 15.1 88 1.2 S 11 17 6 9 1024.7 1024.7 0.2
28/01:30am 17.5 17.6 15.5 88 1.2 S 9 15 5 8 1024.9 1024.9 0.2
28/01:00am 18.5 18.3 15.7 84 1.6 SSE 11 15 6 8 1025.1 1025.1 0.2
28/12:30am 18.1 17.4 15.4 84 1.6 S 13 20 7 11 1025.2 1025.2 0.2
28/12:00am 19.5 18.9 15.6 78 2.3 SE 13 20 7 11 1025.5 1025.5 0.2
 
Date/Time
EST
Temp
°C
App
Temp
°C
Dew
Point
Rel
Hum
%
Delta-T
°C
Wind Press
QNH
hPa
Press
MSL
hPa
Rain
since 9 am
mm
Dir
 
Spd
km/h
Gust
km/h
Spd
kts
Gust
kts
27/11:30pm 19.5 19.2 15.4 77 2.4 SE 11 20 6 11 1025.5 1025.5 0.2
27/11:00pm 19.9 19.5 15.1 74 2.8 SSE 11 19 6 10 1025.8 1025.8 0.2
27/10:30pm 19.8 19.4 15.2 75 2.7 SE 11 19 6 10 1025.9 1025.9 0.2
27/10:00pm 19.9 19.2 15.3 75 2.7 SE 13 22 7 12 1025.7 1025.7 0.2
27/09:30pm 17.8 18.4 15.2 85 1.5 SSE 6 11 3 6 1025.8 1025.8 0.2
27/09:00pm 18.2 17.9 15.5 84 1.6 SSE 11 15 6 8 1025.7 1025.7 0.2
27/08:30pm 17.8 18.1 14.9 83 1.7 SSE 7 11 4 6 1025.6 1025.6 0.2
27/08:00pm 18.3 17.8 14.8 80 2.0 SSW 11 15 6 8 1025.5 1025.5 0.2
27/07:30pm 20.0 19.8 14.8 72 3.0 SSE 9 15 5 8 1025.5 1025.5 0.2
27/07:00pm 20.3 20.1 14.7 70 3.3 SSE 9 15 5 8 1025.3 1025.3 0.2
27/06:30pm 20.5 20.0 14.8 70 3.3 SSE 11 19 6 10 1025.0 1025.0 0.2
27/06:00pm 20.6 20.1 14.9 70 3.3 SSE 11 17 6 9 1024.7 1024.7 0.2
27/05:30pm 20.4 20.4 15.2 72 3.1 SSE 9 15 5 8 1024.2 1024.2 0.2
27/05:00pm 21.0 20.3 15.3 70 3.4 SSE 13 26 7 14 1023.8 1023.8 0.2
27/04:30pm 22.0 21.1 14.9 64 4.2 SE 13 19 7 10 1023.4 1023.4 0.2
27/04:00pm 22.4 21.5 14.8 62 4.5 SE 13 20 7 11 1023.1 1023.1 0.2
27/03:30pm 22.6 21.8 15.2 63 4.4 SE 13 19 7 10 1023.0 1023.0 0.2
27/03:00pm 22.4 22.0 16.2 68 3.7 SE 13 24 7 13 1023.0 1023.0 0.2
27/02:30pm 24.1 23.6 14.8 56 5.5 ESE 11 24 6 13 1022.9 1022.8 0.0
27/02:00pm 23.6 21.9 14.6 57 5.3 SE 17 28 9 15 1022.9 1022.8 0.0

Other Formats:

Comma delimited format used in spreadsheet applications
http://www.bom.gov.au/fwo/IDQ60801/IDQ60801.95370.axf

JavaScript Object Notation format (JSON) in row-major order
http://www.bom.gov.au/fwo/IDQ60801/IDQ60801.95370.json